createdAt,value
2023-08-19T00:00:00.219Z,18.27
2023-08-19T00:02:28.125Z,17.20
2023-08-19T00:04:56.067Z,18.17
2023-08-19T00:07:23.920Z,18.42
2023-08-19T00:09:51.783Z,18.13
2023-08-19T00:12:19.725Z,19.23
2023-08-19T00:14:49.132Z,18.42
2023-08-19T00:17:17.514Z,19.35
2023-08-19T00:19:45.185Z,19.42
2023-08-19T00:22:13.670Z,19.85
2023-08-19T00:24:41.230Z,19.30
2023-08-19T00:27:09.069Z,18.70
2023-08-19T00:29:36.907Z,18.85
2023-08-19T00:32:05.245Z,18.73
2023-08-19T00:34:41.605Z,18.50
2023-08-19T00:37:09.439Z,19.58
2023-08-19T00:39:37.050Z,18.75
2023-08-19T00:42:05.053Z,18.92
2023-08-19T00:44:34.785Z,17.65
2023-08-19T00:47:03.816Z,18.58
2023-08-19T00:49:33.858Z,18.27
2023-08-19T00:52:02.436Z,19.23
2023-08-19T00:54:30.207Z,18.85
2023-08-19T00:56:58.077Z,18.65
2023-08-19T00:59:26.117Z,18.27
2023-08-19T01:01:54.005Z,18.75
2023-08-19T01:04:21.630Z,18.33
2023-08-19T01:06:58.572Z,18.23
2023-08-19T01:09:32.925Z,17.95
2023-08-19T01:12:07.151Z,18.27
2023-08-19T01:14:38.504Z,17.33
2023-08-19T01:17:10.975Z,17.45
2023-08-19T01:19:38.953Z,17.38
2023-08-19T01:22:09.029Z,18.65
2023-08-19T01:24:37.778Z,18.48
2023-08-19T01:27:06.642Z,18.30
2023-08-19T01:29:34.376Z,18.17
2023-08-19T01:32:02.453Z,17.30
2023-08-19T01:34:30.165Z,17.88
2023-08-19T01:37:03.532Z,17.40
2023-08-19T01:39:32.969Z,17.15
2023-08-19T01:42:01.239Z,17.17
2023-08-19T01:44:28.888Z,18.23
2023-08-19T01:46:56.811Z,17.33
2023-08-19T01:49:25.443Z,17.45
2023-08-19T01:51:55.056Z,17.25
2023-08-19T01:54:22.596Z,17.60
2023-08-19T01:56:50.462Z,17.20
2023-08-19T01:59:18.033Z,16.00
2023-08-19T02:01:45.821Z,15.90
2023-08-19T02:04:13.480Z,15.48
2023-08-19T02:06:41.310Z,15.65
2023-08-19T02:09:08.998Z,16.08
2023-08-19T02:11:36.845Z,15.77
2023-08-19T02:14:05.017Z,16.02
2023-08-19T02:16:32.838Z,16.50
2023-08-19T02:19:00.951Z,15.88
2023-08-19T02:21:28.907Z,14.82
2023-08-19T02:23:56.484Z,15.93
2023-08-19T02:26:24.368Z,16.42
2023-08-19T02:28:52.114Z,16.23
2023-08-19T02:31:20.122Z,16.65
2023-08-19T02:33:48.215Z,15.43
2023-08-19T02:36:16.105Z,15.93
2023-08-19T02:38:43.671Z,15.32
2023-08-19T02:41:11.502Z,15.68
2023-08-19T02:43:39.538Z,16.38
2023-08-19T02:46:08.723Z,16.17
2023-08-19T02:48:36.319Z,16.20
2023-08-19T02:51:04.257Z,16.42
2023-08-19T02:53:31.874Z,17.38
2023-08-19T02:55:59.920Z,17.67
2023-08-19T02:58:27.894Z,17.65
2023-08-19T03:00:55.879Z,18.17
2023-08-19T03:03:23.739Z,17.90
2023-08-19T03:05:51.616Z,18.73
2023-08-19T03:08:19.229Z,18.73
2023-08-19T03:10:47.081Z,20.70
2023-08-19T03:13:14.636Z,19.67
2023-08-19T03:15:42.501Z,19.00
2023-08-19T03:18:11.368Z,20.00
2023-08-19T03:20:39.408Z,19.50
2023-08-19T03:23:07.058Z,20.42
2023-08-19T03:25:35.108Z,19.05
2023-08-19T03:28:02.888Z,19.23
2023-08-19T03:30:30.823Z,19.00
2023-08-19T03:32:58.751Z,19.55
2023-08-19T03:35:26.800Z,19.73
2023-08-19T03:37:54.415Z,19.77
2023-08-19T03:40:22.362Z,21.05
2023-08-19T03:42:49.972Z,20.45
2023-08-19T03:45:17.872Z,19.73
2023-08-19T03:47:46.363Z,21.27
2023-08-19T03:50:14.192Z,20.88
2023-08-19T03:52:42.115Z,20.52
2023-08-19T03:55:10.792Z,21.05
2023-08-19T03:57:38.363Z,20.98
2023-08-19T04:00:07.789Z,21.65
2023-08-19T04:02:41.718Z,20.67
2023-08-19T04:05:12.725Z,21.73
2023-08-19T04:07:40.761Z,21.42
2023-08-19T04:10:09.850Z,21.75
2023-08-19T04:12:37.677Z,21.20
2023-08-19T04:15:05.837Z,20.88
2023-08-19T04:17:37.010Z,21.30
2023-08-19T04:20:09.432Z,21.42
2023-08-19T04:22:37.383Z,20.90
2023-08-19T04:25:05.414Z,21.40
2023-08-19T04:27:33.213Z,22.27
2023-08-19T04:30:01.904Z,20.40
2023-08-19T04:32:30.702Z,20.73
2023-08-19T04:34:58.548Z,20.73
2023-08-19T04:37:26.571Z,20.50
2023-08-19T04:39:55.228Z,19.92
2023-08-19T04:42:27.963Z,19.70
2023-08-19T04:44:55.914Z,19.70
2023-08-19T04:47:23.535Z,19.77
2023-08-19T04:49:51.423Z,19.50
2023-08-19T04:52:19.010Z,19.30
2023-08-19T04:54:46.878Z,17.73
2023-08-19T04:57:14.473Z,18.27
2023-08-19T04:59:42.522Z,18.17
2023-08-19T05:02:10.152Z,17.45
2023-08-19T05:04:38.044Z,16.90
2023-08-19T05:07:05.777Z,18.17
2023-08-19T05:09:34.418Z,18.23
2023-08-19T05:12:02.050Z,18.13
2023-08-19T05:14:30.264Z,18.02
2023-08-19T05:16:57.824Z,17.38
2023-08-19T05:19:26.268Z,17.80
2023-08-19T05:21:53.957Z,16.73
2023-08-19T05:24:21.936Z,16.80
2023-08-19T05:26:49.490Z,16.45
2023-08-19T05:29:17.698Z,15.73
2023-08-19T05:31:45.396Z,16.10
2023-08-19T05:34:13.491Z,15.98
2023-08-19T05:36:41.112Z,15.88
2023-08-19T05:39:09.091Z,14.77
2023-08-19T05:41:36.884Z,14.18
2023-08-19T05:44:04.872Z,14.13
2023-08-19T05:46:32.553Z,14.10
2023-08-19T05:49:00.460Z,13.32
2023-08-19T05:51:28.123Z,13.43
2023-08-19T05:54:00.118Z,14.55
2023-08-19T05:56:27.999Z,13.18
2023-08-19T05:58:56.198Z,12.70
2023-08-19T06:01:25.025Z,13.60
2023-08-19T06:03:53.286Z,12.43
2023-08-19T06:06:20.965Z,12.13
2023-08-19T06:08:48.833Z,12.35
2023-08-19T06:11:16.456Z,11.88
2023-08-19T06:13:44.340Z,11.50
2023-08-19T06:16:12.004Z,11.10
2023-08-19T06:18:41.005Z,11.07
2023-08-19T06:21:08.700Z,11.00
2023-08-19T06:23:36.572Z,10.45
2023-08-19T06:26:04.554Z,10.40
2023-08-19T06:28:32.422Z,10.68
2023-08-19T06:31:00.208Z,9.88
2023-08-19T06:33:28.534Z,9.48
2023-08-19T06:35:59.361Z,9.93
2023-08-19T06:38:31.074Z,9.85
2023-08-19T06:41:10.655Z,9.75
2023-08-19T06:43:39.329Z,9.32
2023-08-19T06:46:07.678Z,9.85
2023-08-19T06:48:36.349Z,9.70
2023-08-19T06:51:04.981Z,9.75
2023-08-19T06:53:33.969Z,10.20
2023-08-19T06:56:04.543Z,10.40
2023-08-19T06:58:35.412Z,9.75
2023-08-19T07:01:05.043Z,9.18
2023-08-19T07:03:34.628Z,9.88
2023-08-19T07:06:04.083Z,9.18
2023-08-19T07:08:32.732Z,9.68
2023-08-19T07:11:02.085Z,9.27
2023-08-19T07:13:30.519Z,9.27
2023-08-19T07:16:01.428Z,9.02
2023-08-19T07:18:32.114Z,9.07
2023-08-19T07:21:00.920Z,9.27
2023-08-19T07:23:29.703Z,9.00
2023-08-19T07:25:58.134Z,9.02
2023-08-19T07:28:26.296Z,8.68
2023-08-19T07:30:54.195Z,8.88
2023-08-19T07:33:22.242Z,9.13
2023-08-19T07:35:50.232Z,8.98
2023-08-19T07:38:18.197Z,9.82
2023-08-19T07:40:45.792Z,9.40
2023-08-19T07:43:14.769Z,9.35
2023-08-19T07:45:42.542Z,8.57
2023-08-19T07:48:10.437Z,8.60
2023-08-19T07:50:38.454Z,8.55
2023-08-19T07:53:06.364Z,8.80
2023-08-19T08:31:21.459Z,8.93
2023-08-19T08:33:49.295Z,8.57
2023-08-19T08:36:16.721Z,9.27
2023-08-19T08:38:44.893Z,8.55
2023-08-19T08:41:13.216Z,9.13
2023-08-19T08:43:41.884Z,9.32
2023-08-19T08:46:10.010Z,8.70
2023-08-19T08:48:37.941Z,8.25
2023-08-19T08:51:05.682Z,9.25
2023-08-19T08:53:33.528Z,9.30
2023-08-19T08:56:01.445Z,8.98
2023-08-19T08:58:29.301Z,8.65
2023-08-19T09:00:56.951Z,9.27
2023-08-19T09:03:30.166Z,8.63
2023-08-19T09:06:00.615Z,9.27
2023-08-19T09:08:33.119Z,8.57
2023-08-19T09:11:03.810Z,8.63
2023-08-19T09:13:32.519Z,9.50
2023-08-19T09:16:00.123Z,8.93
2023-08-19T09:18:28.782Z,9.05
2023-08-19T09:20:56.351Z,9.50
2023-08-19T09:23:24.047Z,9.55
2023-08-19T09:25:51.667Z,9.98
2023-08-19T09:28:19.482Z,9.85
2023-08-19T09:30:46.980Z,9.50
2023-08-19T09:33:21.539Z,10.00
2023-08-19T09:35:59.602Z,9.75
2023-08-19T09:38:28.232Z,9.98
2023-08-19T09:41:03.153Z,10.15
2023-08-19T09:43:31.315Z,9.80
2023-08-19T09:46:02.135Z,10.93
2023-08-19T09:48:29.864Z,10.05
2023-08-19T09:50:57.861Z,9.30
2023-08-19T09:53:28.996Z,9.73
2023-08-19T09:55:56.456Z,10.43
2023-08-19T09:58:26.244Z,9.55
2023-08-19T10:00:53.950Z,9.63
2023-08-19T10:03:22.074Z,9.40
2023-08-19T10:05:53.448Z,9.60
2023-08-19T10:08:24.296Z,9.63
2023-08-19T10:10:51.878Z,9.45
2023-08-19T10:13:20.648Z,9.60
2023-08-19T10:15:48.489Z,9.90
2023-08-19T10:18:27.625Z,9.70
2023-08-19T10:20:57.579Z,9.68
2023-08-19T10:23:26.318Z,9.63
2023-08-19T10:25:54.479Z,10.45
2023-08-19T10:28:26.214Z,9.57
2023-08-19T10:31:09.281Z,9.98
2023-08-19T10:33:43.858Z,9.82
2023-08-19T10:36:12.970Z,9.80
2023-08-19T10:38:45.029Z,10.18
2023-08-19T10:41:19.547Z,10.23
2023-08-19T10:43:56.993Z,10.85
2023-08-19T10:46:28.451Z,11.00
2023-08-19T10:48:56.462Z,10.02
2023-08-19T10:51:43.868Z,11.57
2023-08-19T10:54:12.240Z,10.65
2023-08-19T10:56:44.712Z,10.68
2023-08-19T10:59:12.627Z,10.65
2023-08-19T11:01:42.196Z,10.48
2023-08-19T11:04:10.203Z,10.30
2023-08-19T11:06:37.806Z,10.48
2023-08-19T11:09:05.872Z,10.15
2023-08-19T11:11:33.659Z,9.90
2023-08-19T11:14:01.518Z,10.90
2023-08-19T11:16:29.115Z,9.55
2023-08-19T11:18:58.214Z,10.45
2023-08-19T11:21:26.016Z,10.32
2023-08-19T11:23:53.903Z,10.93
2023-08-19T11:26:21.527Z,10.38
2023-08-19T11:28:50.469Z,10.60
2023-08-19T11:31:18.114Z,10.60
2023-08-19T11:33:46.704Z,10.30
2023-08-19T11:36:14.640Z,10.48
2023-08-19T11:38:42.451Z,10.40
2023-08-19T11:41:10.027Z,11.10
2023-08-19T11:43:47.372Z,10.27
2023-08-19T11:46:15.002Z,10.60
2023-08-19T11:48:42.996Z,11.18
2023-08-19T11:51:12.133Z,10.95
2023-08-19T11:53:40.659Z,11.80
2023-08-19T11:56:08.510Z,10.13
2023-08-19T11:58:41.601Z,10.80
2023-08-19T12:01:09.465Z,11.07
2023-08-19T12:03:37.307Z,10.85
2023-08-19T12:06:04.834Z,11.07
2023-08-19T12:08:33.539Z,10.48
2023-08-19T12:11:01.276Z,11.50
2023-08-19T12:13:29.221Z,11.00
2023-08-19T12:15:57.415Z,10.20
2023-08-19T12:18:25.799Z,10.68
2023-08-19T12:20:54.012Z,10.32
2023-08-19T12:23:21.775Z,10.77
2023-08-19T12:25:49.882Z,10.38
2023-08-19T12:28:18.022Z,10.85
2023-08-19T12:30:45.560Z,10.75
2023-08-19T12:33:14.809Z,11.18
2023-08-19T12:35:43.277Z,10.68
2023-08-19T12:38:10.995Z,10.90
2023-08-19T12:40:38.515Z,10.68
2023-08-19T12:43:06.263Z,10.65
2023-08-19T12:45:33.810Z,10.43
2023-08-19T12:48:02.258Z,10.82
2023-08-19T12:50:30.026Z,10.52
2023-08-19T12:52:58.160Z,11.15
2023-08-19T12:55:26.277Z,10.27
2023-08-19T12:57:55.830Z,9.40
2023-08-19T13:00:24.445Z,9.38
2023-08-19T13:02:52.875Z,8.38
2023-08-19T13:05:22.666Z,8.15
2023-08-19T13:07:50.614Z,8.88
2023-08-19T13:10:18.113Z,8.88
2023-08-19T13:12:48.436Z,8.60
2023-08-19T13:15:18.008Z,8.70
2023-08-19T13:17:46.475Z,8.77
2023-08-19T13:20:15.948Z,9.52
2023-08-19T13:22:43.951Z,8.82
2023-08-19T13:25:11.507Z,9.40
2023-08-19T13:27:39.292Z,10.77
2023-08-19T13:30:07.887Z,10.60
2023-08-19T13:32:36.776Z,9.95
2023-08-19T13:35:08.342Z,8.82
2023-08-19T13:37:36.242Z,8.88
2023-08-19T13:40:06.727Z,9.13
2023-08-19T13:42:34.857Z,9.85
2023-08-19T13:45:05.448Z,10.27
2023-08-19T13:47:33.675Z,10.38
2023-08-19T13:50:01.702Z,10.20
2023-08-19T13:52:40.091Z,9.77
2023-08-19T13:55:09.061Z,10.00
2023-08-19T13:57:37.324Z,10.07
2023-08-19T14:00:12.067Z,10.35
2023-08-19T14:02:43.793Z,11.02
2023-08-19T14:05:18.506Z,10.63
2023-08-19T14:07:47.826Z,11.20
2023-08-19T14:10:19.551Z,11.07
2023-08-19T14:12:47.576Z,10.27
2023-08-19T14:15:15.512Z,10.63
2023-08-19T14:17:43.298Z,10.38
2023-08-19T14:20:12.572Z,10.73
2023-08-19T14:22:43.334Z,11.30
2023-08-19T14:25:13.891Z,11.85
2023-08-19T14:27:41.482Z,11.00
2023-08-19T14:30:09.465Z,11.77
2023-08-19T14:32:36.989Z,11.52
2023-08-19T14:35:04.939Z,12.30
2023-08-19T14:37:32.745Z,11.77
2023-08-19T14:40:00.791Z,12.85
2023-08-19T14:42:28.420Z,13.70
2023-08-19T14:44:56.126Z,13.25
2023-08-19T14:47:23.648Z,12.73
2023-08-19T14:49:51.709Z,13.10
2023-08-19T14:52:20.295Z,12.93
2023-08-19T14:54:48.142Z,12.73
2023-08-19T14:57:16.191Z,12.65
2023-08-19T14:59:43.942Z,12.35
2023-08-19T15:02:11.433Z,12.23
2023-08-19T15:04:39.229Z,12.40
2023-08-19T15:07:07.007Z,11.93
2023-08-19T15:09:34.749Z,11.82
2023-08-19T15:12:02.231Z,11.48
2023-08-19T15:14:30.074Z,10.65
2023-08-19T15:16:57.738Z,11.55
2023-08-19T15:19:25.536Z,10.05
2023-08-19T15:21:53.048Z,10.00
2023-08-19T15:24:20.928Z,10.27
2023-08-19T15:26:48.360Z,9.50
2023-08-19T15:29:16.390Z,9.45
2023-08-19T15:31:43.912Z,9.25
2023-08-19T15:34:11.731Z,9.50
2023-08-19T15:36:39.278Z,9.52
2023-08-19T15:39:07.011Z,9.27
2023-08-19T15:41:34.773Z,9.00
2023-08-19T15:44:02.981Z,9.18
2023-08-19T15:46:30.498Z,9.00
2023-08-19T15:48:58.239Z,9.15
2023-08-19T15:51:25.748Z,7.97
2023-08-19T15:53:55.848Z,7.85
2023-08-19T15:56:23.698Z,7.57
2023-08-19T15:58:52.610Z,8.20
2023-08-19T16:01:20.244Z,8.50
2023-08-19T16:03:47.985Z,7.75
2023-08-19T16:06:15.511Z,7.57
2023-08-19T16:08:43.243Z,8.27
2023-08-19T16:11:10.862Z,8.32
2023-08-19T16:13:38.653Z,7.38
2023-08-19T16:16:06.139Z,8.10
2023-08-19T16:18:35.512Z,8.32
2023-08-19T16:21:06.329Z,7.60
2023-08-19T16:23:34.718Z,8.65
2023-08-19T16:26:02.185Z,8.98
2023-08-19T16:28:30.601Z,8.63
2023-08-19T16:30:58.185Z,8.60
2023-08-19T16:33:25.950Z,8.15
2023-08-19T16:35:56.559Z,8.73
2023-08-19T16:38:24.419Z,8.18
2023-08-19T16:40:54.946Z,9.18
2023-08-19T16:43:23.550Z,9.32
2023-08-19T16:45:58.037Z,9.15
2023-08-19T16:48:26.450Z,9.35
2023-08-19T16:50:54.369Z,9.35
2023-08-19T16:53:22.506Z,9.55
2023-08-19T16:55:57.127Z,9.52
2023-08-19T16:58:25.390Z,9.93
2023-08-19T17:01:04.758Z,9.27
2023-08-19T17:03:33.059Z,9.15
2023-08-19T17:06:01.444Z,9.23
2023-08-19T17:08:29.545Z,9.23
2023-08-19T17:10:57.223Z,9.75
2023-08-19T17:13:25.657Z,9.25
2023-08-19T17:15:54.756Z,8.90
2023-08-19T17:18:22.770Z,9.52
2023-08-19T17:20:54.164Z,9.20
2023-08-19T17:23:22.248Z,9.48
2023-08-19T17:25:49.739Z,9.18
2023-08-19T17:28:18.001Z,9.90
2023-08-19T17:30:45.625Z,9.82
2023-08-19T17:33:13.432Z,10.23
2023-08-19T17:35:41.251Z,10.52
2023-08-19T17:38:09.315Z,10.32
2023-08-19T17:40:37.044Z,10.27
2023-08-19T17:43:04.902Z,9.57
2023-08-19T17:45:32.306Z,10.25
2023-08-19T17:48:00.146Z,11.07
2023-08-19T17:50:27.584Z,9.82
2023-08-19T17:52:55.422Z,10.48
2023-08-19T17:55:22.939Z,10.77
2023-08-19T17:57:51.635Z,10.60
2023-08-19T18:00:19.207Z,10.75
2023-08-19T18:02:47.167Z,11.13
2023-08-19T18:05:14.663Z,11.13
2023-08-19T18:07:42.441Z,11.75
2023-08-19T18:10:10.111Z,11.65
2023-08-19T18:12:37.860Z,11.35
2023-08-19T18:15:06.000Z,13.05
2023-08-19T18:17:34.064Z,12.85
2023-08-19T18:20:01.808Z,13.18
2023-08-19T18:22:29.606Z,13.32
2023-08-19T18:24:57.029Z,13.00
2023-08-19T18:27:24.822Z,13.93
2023-08-19T18:29:52.332Z,13.65
2023-08-19T18:32:20.089Z,14.02
2023-08-19T18:34:47.520Z,14.55
2023-08-19T18:37:15.224Z,14.45
2023-08-19T18:39:42.744Z,14.73
2023-08-19T18:42:10.802Z,13.70
2023-08-19T18:44:38.338Z,15.40
2023-08-19T18:47:06.087Z,15.75
2023-08-19T18:49:33.519Z,15.27
2023-08-19T18:52:01.292Z,15.63
2023-08-19T18:54:28.830Z,15.55
2023-08-19T18:56:56.590Z,16.52
2023-08-19T18:59:24.131Z,16.92
2023-08-19T19:01:51.901Z,17.23
2023-08-19T19:04:19.389Z,17.85
2023-08-19T19:06:47.139Z,18.25
2023-08-19T19:09:15.135Z,18.27
2023-08-19T19:11:42.897Z,18.45
2023-08-19T19:14:10.458Z,18.88
2023-08-19T19:16:38.304Z,18.83
2023-08-19T19:19:05.813Z,18.30
2023-08-19T19:21:34.318Z,20.38
2023-08-19T19:24:02.405Z,19.48
2023-08-19T19:26:30.123Z,19.88
2023-08-19T19:28:57.646Z,19.38
2023-08-19T19:31:25.379Z,19.85
2023-08-19T19:33:53.167Z,18.80
2023-08-19T19:36:21.010Z,19.10
2023-08-19T19:38:48.470Z,19.83
2023-08-19T19:41:16.233Z,20.10
2023-08-19T19:43:43.748Z,19.10
2023-08-19T19:46:11.555Z,20.92
2023-08-19T19:48:39.155Z,19.92
2023-08-19T19:51:06.917Z,21.33
2023-08-19T19:53:34.560Z,22.77
2023-08-19T19:56:02.357Z,21.35
2023-08-19T19:58:30.742Z,23.50
2023-08-19T20:00:58.533Z,22.30
2023-08-19T20:03:26.103Z,23.17
2023-08-19T20:05:54.427Z,24.65
2023-08-19T20:08:23.690Z,23.90
2023-08-19T20:10:52.471Z,22.77
2023-08-19T20:13:20.738Z,22.60
2023-08-19T20:15:48.736Z,23.58
2023-08-19T20:18:16.187Z,22.73
2023-08-19T20:20:43.965Z,23.02
2023-08-19T20:23:11.451Z,22.58
2023-08-19T20:25:39.181Z,22.27
2023-08-19T20:28:06.828Z,22.83
2023-08-19T20:30:39.167Z,23.08
2023-08-19T20:33:08.829Z,22.60
2023-08-19T20:35:37.201Z,22.95
2023-08-19T20:38:06.419Z,23.45
2023-08-19T20:40:34.212Z,23.35
2023-08-19T20:43:01.713Z,24.63
2023-08-19T20:45:29.680Z,24.40
2023-08-19T20:47:57.207Z,27.60
2023-08-19T20:50:24.966Z,31.27
2023-08-19T20:52:52.705Z,35.58
2023-08-19T20:55:20.443Z,33.03
2023-08-19T20:57:48.022Z,31.30
2023-08-19T21:00:15.913Z,29.63
2023-08-19T21:02:43.549Z,25.48
2023-08-19T21:05:11.418Z,26.08
2023-08-19T21:07:38.904Z,25.77
2023-08-19T21:10:06.867Z,25.70
2023-08-19T21:12:34.410Z,29.30
2023-08-19T21:15:02.218Z,28.77
2023-08-19T21:17:29.966Z,30.50
2023-08-19T21:19:57.869Z,28.30
2023-08-19T21:22:25.633Z,27.60
2023-08-19T21:24:54.623Z,26.55
2023-08-19T21:27:22.088Z,28.70
2023-08-19T21:29:49.812Z,29.55
2023-08-19T21:32:17.368Z,28.55
2023-08-19T21:34:45.140Z,27.85
2023-08-19T21:37:12.612Z,26.88
2023-08-19T21:39:40.350Z,28.45
2023-08-19T21:42:07.898Z,28.70
2023-08-19T21:44:35.862Z,29.30
2023-08-19T21:47:03.434Z,30.90
2023-08-19T21:49:31.206Z,30.52
2023-08-19T21:51:58.704Z,30.70
2023-08-19T21:54:26.461Z,30.23
2023-08-19T21:56:53.991Z,31.15
2023-08-19T21:59:21.715Z,31.38
2023-08-19T22:01:49.183Z,31.02
2023-08-19T22:04:16.892Z,33.30
2023-08-19T22:06:44.385Z,31.63
2023-08-19T22:09:12.135Z,32.42
2023-08-19T22:11:40.456Z,32.47
2023-08-19T22:14:08.562Z,32.78
2023-08-19T22:16:36.078Z,32.10
2023-08-19T22:19:04.299Z,33.08
2023-08-19T22:21:32.471Z,32.90
2023-08-19T22:24:00.190Z,32.75
2023-08-19T22:26:27.767Z,33.50
2023-08-19T22:28:55.551Z,32.65
2023-08-19T22:31:23.077Z,33.65
2023-08-19T22:33:50.782Z,33.83
2023-08-19T22:36:18.264Z,35.90
2023-08-19T22:38:47.108Z,35.40
2023-08-19T22:41:14.587Z,34.08
2023-08-19T22:43:42.337Z,35.20
2023-08-19T22:46:09.794Z,34.75
2023-08-19T22:48:37.632Z,34.60
2023-08-19T22:51:05.775Z,35.08
2023-08-19T22:53:33.569Z,34.97
2023-08-19T22:56:01.014Z,35.42
2023-08-19T22:58:28.779Z,35.25
2023-08-19T23:00:56.323Z,35.20
2023-08-19T23:03:24.145Z,35.20
2023-08-19T23:05:57.601Z,36.00
2023-08-19T23:08:25.305Z,36.95
2023-08-19T23:10:52.860Z,36.60
2023-08-19T23:13:20.560Z,36.47
2023-08-19T23:15:48.113Z,37.13
2023-08-19T23:18:15.869Z,35.53
2023-08-19T23:20:43.410Z,34.55
2023-08-19T23:23:11.120Z,35.67
2023-08-19T23:25:38.623Z,36.20
2023-08-19T23:28:07.029Z,35.22
2023-08-19T23:30:34.653Z,35.67
2023-08-19T23:33:02.355Z,36.40
2023-08-19T23:35:29.904Z,34.08
2023-08-19T23:37:57.638Z,35.72
2023-08-19T23:40:25.119Z,35.42
2023-08-19T23:42:52.983Z,35.10
2023-08-19T23:45:20.443Z,35.80
2023-08-19T23:47:48.423Z,35.63
2023-08-19T23:50:16.180Z,36.00
2023-08-19T23:52:47.104Z,36.28
2023-08-19T23:55:16.400Z,34.92
2023-08-19T23:57:45.954Z,33.63
